sensor_id;sensor_type;location;lat;lon;timestamp;P1;durP1;ratioP1;P2;durP2;ratioP2
11386;SDS011;5748;53.102;8.456;2023-01-26T00:01:14;15.57;;;11.27;;
11386;SDS011;5748;53.102;8.456;2023-01-26T00:03:42;15.87;;;10.90;;
11386;SDS011;5748;53.102;8.456;2023-01-26T00:06:10;15.50;;;11.27;;
11386;SDS011;5748;53.102;8.456;2023-01-26T00:08:40;14.60;;;10.70;;
11386;SDS011;5748;53.102;8.456;2023-01-26T00:11:09;15.57;;;10.30;;
11386;SDS011;5748;53.102;8.456;2023-01-26T00:13:39;14.20;;;10.87;;
11386;SDS011;5748;53.102;8.456;2023-01-26T00:16:09;14.90;;;10.43;;
11386;SDS011;5748;53.102;8.456;2023-01-26T00:18:38;14.30;;;10.00;;
11386;SDS011;5748;53.102;8.456;2023-01-26T00:21:07;17.60;;;12.00;;
11386;SDS011;5748;53.102;8.456;2023-01-26T00:23:48;16.83;;;11.80;;
11386;SDS011;5748;53.102;8.456;2023-01-26T00:26:18;14.27;;;10.03;;
11386;SDS011;5748;53.102;8.456;2023-01-26T00:28:49;17.20;;;11.57;;
11386;SDS011;5748;53.102;8.456;2023-01-26T00:31:18;18.63;;;12.30;;
11386;SDS011;5748;53.102;8.456;2023-01-26T00:33:47;15.67;;;11.00;;
11386;SDS011;5748;53.102;8.456;2023-01-26T00:36:16;17.20;;;11.47;;
11386;SDS011;5748;53.102;8.456;2023-01-26T00:38:44;14.17;;;10.30;;
11386;SDS011;5748;53.102;8.456;2023-01-26T00:41:11;14.20;;;10.23;;
11386;SDS011;5748;53.102;8.456;2023-01-26T00:43:59;13.60;;;9.60;;
11386;SDS011;5748;53.102;8.456;2023-01-26T00:46:28;15.77;;;10.23;;
11386;SDS011;5748;53.102;8.456;2023-01-26T00:48:56;15.27;;;10.60;;
11386;SDS011;5748;53.102;8.456;2023-01-26T00:51:24;14.73;;;10.07;;
11386;SDS011;5748;53.102;8.456;2023-01-26T00:53:52;15.20;;;10.53;;
11386;SDS011;5748;53.102;8.456;2023-01-26T00:56:19;14.50;;;10.00;;
11386;SDS011;5748;53.102;8.456;2023-01-26T00:58:46;13.77;;;9.43;;
11386;SDS011;5748;53.102;8.456;2023-01-26T01:01:13;15.13;;;10.83;;
11386;SDS011;5748;53.102;8.456;2023-01-26T01:03:42;15.27;;;10.77;;
11386;SDS011;5748;53.102;8.456;2023-01-26T01:06:09;17.83;;;11.97;;
11386;SDS011;5748;53.102;8.456;2023-01-26T01:08:37;18.20;;;12.73;;
11386;SDS011;5748;53.102;8.456;2023-01-26T01:11:05;14.53;;;10.20;;
11386;SDS011;5748;53.102;8.456;2023-01-26T01:13:35;16.30;;;11.40;;
11386;SDS011;5748;53.102;8.456;2023-01-26T01:16:03;14.70;;;10.47;;
11386;SDS011;5748;53.102;8.456;2023-01-26T01:18:33;14.43;;;9.80;;
11386;SDS011;5748;53.102;8.456;2023-01-26T01:21:03;15.67;;;11.00;;
11386;SDS011;5748;53.102;8.456;2023-01-26T01:23:32;17.43;;;11.60;;
11386;SDS011;5748;53.102;8.456;2023-01-26T01:25:59;18.47;;;12.27;;
11386;SDS011;5748;53.102;8.456;2023-01-26T01:28:36;14.33;;;10.20;;
11386;SDS011;5748;53.102;8.456;2023-01-26T01:31:03;14.60;;;9.93;;
11386;SDS011;5748;53.102;8.456;2023-01-26T01:33:31;13.43;;;9.27;;
11386;SDS011;5748;53.102;8.456;2023-01-26T01:36:02;14.67;;;10.10;;
11386;SDS011;5748;53.102;8.456;2023-01-26T01:38:31;17.00;;;11.57;;
11386;SDS011;5748;53.102;8.456;2023-01-26T01:41:10;14.03;;;9.83;;
11386;SDS011;5748;53.102;8.456;2023-01-26T01:43:39;13.90;;;9.50;;
11386;SDS011;5748;53.102;8.456;2023-01-26T01:46:08;15.60;;;10.40;;
11386;SDS011;5748;53.102;8.456;2023-01-26T01:48:45;14.30;;;10.03;;
11386;SDS011;5748;53.102;8.456;2023-01-26T01:51:30;15.63;;;10.63;;
11386;SDS011;5748;53.102;8.456;2023-01-26T01:54:01;13.80;;;9.93;;
11386;SDS011;5748;53.102;8.456;2023-01-26T01:56:33;14.20;;;9.77;;
11386;SDS011;5748;53.102;8.456;2023-01-26T01:59:01;13.30;;;9.27;;
11386;SDS011;5748;53.102;8.456;2023-01-26T02:01:31;13.77;;;9.47;;
11386;SDS011;5748;53.102;8.456;2023-01-26T02:03:59;13.53;;;9.40;;
11386;SDS011;5748;53.102;8.456;2023-01-26T02:06:32;15.70;;;10.37;;
11386;SDS011;5748;53.102;8.456;2023-01-26T02:09:04;14.43;;;9.80;;
11386;SDS011;5748;53.102;8.456;2023-01-26T02:11:33;12.53;;;9.00;;
11386;SDS011;5748;53.102;8.456;2023-01-26T02:14:06;12.43;;;8.50;;
11386;SDS011;5748;53.102;8.456;2023-01-26T02:16:35;13.77;;;9.37;;
11386;SDS011;5748;53.102;8.456;2023-01-26T02:19:03;12.67;;;9.03;;
11386;SDS011;5748;53.102;8.456;2023-01-26T02:21:38;13.97;;;9.40;;
11386;SDS011;5748;53.102;8.456;2023-01-26T02:24:09;14.00;;;9.50;;
11386;SDS011;5748;53.102;8.456;2023-01-26T02:26:44;14.27;;;9.80;;
11386;SDS011;5748;53.102;8.456;2023-01-26T02:29:21;10.90;;;8.33;;
11386;SDS011;5748;53.102;8.456;2023-01-26T02:31:48;14.43;;;10.10;;
11386;SDS011;5748;53.102;8.456;2023-01-26T02:34:17;13.93;;;9.40;;
11386;SDS011;5748;53.102;8.456;2023-01-26T02:36:44;12.63;;;8.97;;
11386;SDS011;5748;53.102;8.456;2023-01-26T02:39:24;12.27;;;8.20;;
11386;SDS011;5748;53.102;8.456;2023-01-26T02:42:05;11.53;;;7.93;;
11386;SDS011;5748;53.102;8.456;2023-01-26T02:44:50;12.03;;;8.10;;
11386;SDS011;5748;53.102;8.456;2023-01-26T02:47:18;12.03;;;8.63;;
11386;SDS011;5748;53.102;8.456;2023-01-26T02:49:45;11.40;;;8.10;;
11386;SDS011;5748;53.102;8.456;2023-01-26T02:52:11;13.77;;;9.17;;
11386;SDS011;5748;53.102;8.456;2023-01-26T02:54:39;11.60;;;8.33;;
11386;SDS011;5748;53.102;8.456;2023-01-26T02:57:33;13.23;;;9.13;;
11386;SDS011;5748;53.102;8.456;2023-01-26T03:00:00;13.03;;;9.37;;
11386;SDS011;5748;53.102;8.456;2023-01-26T03:02:29;11.33;;;8.40;;
11386;SDS011;5748;53.102;8.456;2023-01-26T03:04:57;11.87;;;8.60;;
11386;SDS011;5748;53.102;8.456;2023-01-26T03:07:24;11.50;;;7.80;;
11386;SDS011;5748;53.102;8.456;2023-01-26T03:09:51;10.87;;;8.20;;
11386;SDS011;5748;53.102;8.456;2023-01-26T03:12:27;10.77;;;7.87;;
11386;SDS011;5748;53.102;8.456;2023-01-26T03:14:55;11.23;;;8.20;;
11386;SDS011;5748;53.102;8.456;2023-01-26T03:17:36;10.67;;;7.63;;
11386;SDS011;5748;53.102;8.456;2023-01-26T03:20:04;10.50;;;7.53;;
11386;SDS011;5748;53.102;8.456;2023-01-26T03:23:01;9.60;;;7.20;;
11386;SDS011;5748;53.102;8.456;2023-01-26T03:25:46;10.80;;;7.80;;
11386;SDS011;5748;53.102;8.456;2023-01-26T03:28:30;10.40;;;7.30;;
11386;SDS011;5748;53.102;8.456;2023-01-26T03:30:59;13.17;;;8.40;;
11386;SDS011;5748;53.102;8.456;2023-01-26T03:36:06;12.70;;;8.57;;
11386;SDS011;5748;53.102;8.456;2023-01-26T03:38:33;10.63;;;7.50;;
11386;SDS011;5748;53.102;8.456;2023-01-26T03:41:00;12.23;;;7.90;;
11386;SDS011;5748;53.102;8.456;2023-01-26T03:43:45;11.73;;;7.90;;
11386;SDS011;5748;53.102;8.456;2023-01-26T03:46:31;11.83;;;8.33;;
11386;SDS011;5748;53.102;8.456;2023-01-26T03:49:16;11.33;;;7.97;;
11386;SDS011;5748;53.102;8.456;2023-01-26T03:52:00;10.53;;;7.13;;
11386;SDS011;5748;53.102;8.456;2023-01-26T03:54:45;9.80;;;7.03;;
11386;SDS011;5748;53.102;8.456;2023-01-26T03:57:30;10.03;;;6.90;;
11386;SDS011;5748;53.102;8.456;2023-01-26T03:59:57;10.20;;;7.30;;
11386;SDS011;5748;53.102;8.456;2023-01-26T04:02:26;10.10;;;7.00;;
11386;SDS011;5748;53.102;8.456;2023-01-26T04:05:10;9.97;;;6.90;;
11386;SDS011;5748;53.102;8.456;2023-01-26T04:07:57;10.03;;;7.27;;
11386;SDS011;5748;53.102;8.456;2023-01-26T04:10:47;10.20;;;7.53;;
11386;SDS011;5748;53.102;8.456;2023-01-26T04:13:15;9.33;;;6.57;;
11386;SDS011;5748;53.102;8.456;2023-01-26T04:16:00;11.30;;;7.43;;
11386;SDS011;5748;53.102;8.456;2023-01-26T04:18:46;10.33;;;7.20;;
11386;SDS011;5748;53.102;8.456;2023-01-26T04:21:32;9.57;;;6.93;;
11386;SDS011;5748;53.102;8.456;2023-01-26T04:24:01;9.27;;;6.70;;
11386;SDS011;5748;53.102;8.456;2023-01-26T04:26:34;11.90;;;8.03;;
11386;SDS011;5748;53.102;8.456;2023-01-26T04:29:02;9.63;;;7.03;;
11386;SDS011;5748;53.102;8.456;2023-01-26T04:31:32;10.80;;;7.30;;
11386;SDS011;5748;53.102;8.456;2023-01-26T04:34:00;9.03;;;6.63;;
11386;SDS011;5748;53.102;8.456;2023-01-26T04:36:30;9.33;;;6.87;;
11386;SDS011;5748;53.102;8.456;2023-01-26T04:38:57;9.67;;;6.80;;
11386;SDS011;5748;53.102;8.456;2023-01-26T04:41:24;9.50;;;6.77;;
11386;SDS011;5748;53.102;8.456;2023-01-26T04:43:51;8.50;;;6.27;;
11386;SDS011;5748;53.102;8.456;2023-01-26T04:46:18;8.40;;;5.93;;
11386;SDS011;5748;53.102;8.456;2023-01-26T04:48:46;9.53;;;6.23;;
11386;SDS011;5748;53.102;8.456;2023-01-26T04:51:15;9.07;;;6.43;;
11386;SDS011;5748;53.102;8.456;2023-01-26T04:53:44;9.50;;;6.60;;
11386;SDS011;5748;53.102;8.456;2023-01-26T04:56:13;10.10;;;6.70;;
11386;SDS011;5748;53.102;8.456;2023-01-26T04:58:47;10.13;;;6.73;;
11386;SDS011;5748;53.102;8.456;2023-01-26T05:01:14;9.73;;;6.40;;
11386;SDS011;5748;53.102;8.456;2023-01-26T05:03:41;8.33;;;5.93;;
11386;SDS011;5748;53.102;8.456;2023-01-26T05:06:08;10.53;;;7.23;;
11386;SDS011;5748;53.102;8.456;2023-01-26T05:08:37;8.60;;;6.03;;
11386;SDS011;5748;53.102;8.456;2023-01-26T05:11:04;8.30;;;5.77;;
11386;SDS011;5748;53.102;8.456;2023-01-26T05:13:32;8.90;;;6.30;;
11386;SDS011;5748;53.102;8.456;2023-01-26T05:16:00;8.27;;;5.73;;
11386;SDS011;5748;53.102;8.456;2023-01-26T05:18:28;7.60;;;5.70;;
11386;SDS011;5748;53.102;8.456;2023-01-26T05:20:56;9.10;;;6.37;;
11386;SDS011;5748;53.102;8.456;2023-01-26T05:23:23;8.53;;;6.13;;
11386;SDS011;5748;53.102;8.456;2023-01-26T05:25:52;8.93;;;6.13;;
11386;SDS011;5748;53.102;8.456;2023-01-26T05:28:19;9.10;;;6.10;;
11386;SDS011;5748;53.102;8.456;2023-01-26T05:30:46;8.00;;;5.73;;
11386;SDS011;5748;53.102;8.456;2023-01-26T05:33:16;7.40;;;5.37;;
11386;SDS011;5748;53.102;8.456;2023-01-26T05:35:47;6.70;;;5.00;;
11386;SDS011;5748;53.102;8.456;2023-01-26T05:38:21;7.47;;;4.97;;
11386;SDS011;5748;53.102;8.456;2023-01-26T05:40:48;7.00;;;4.97;;
11386;SDS011;5748;53.102;8.456;2023-01-26T05:43:17;6.37;;;4.73;;
11386;SDS011;5748;53.102;8.456;2023-01-26T05:45:44;6.13;;;4.33;;
11386;SDS011;5748;53.102;8.456;2023-01-26T05:48:11;6.33;;;4.27;;
11386;SDS011;5748;53.102;8.456;2023-01-26T05:50:38;5.67;;;4.40;;
11386;SDS011;5748;53.102;8.456;2023-01-26T05:58:23;5.50;;;3.93;;
11386;SDS011;5748;53.102;8.456;2023-01-26T06:00:50;5.33;;;4.00;;
11386;SDS011;5748;53.102;8.456;2023-01-26T06:03:18;4.97;;;3.47;;
11386;SDS011;5748;53.102;8.456;2023-01-26T06:05:50;5.40;;;3.97;;
11386;SDS011;5748;53.102;8.456;2023-01-26T06:08:19;6.30;;;4.60;;
11386;SDS011;5748;53.102;8.456;2023-01-26T06:10:46;6.33;;;4.50;;
11386;SDS011;5748;53.102;8.456;2023-01-26T06:13:13;5.50;;;4.10;;
11386;SDS011;5748;53.102;8.456;2023-01-26T06:15:42;5.67;;;4.00;;
11386;SDS011;5748;53.102;8.456;2023-01-26T06:20:58;5.70;;;4.47;;
11386;SDS011;5748;53.102;8.456;2023-01-26T06:23:26;5.23;;;4.00;;
11386;SDS011;5748;53.102;8.456;2023-01-26T06:25:56;5.43;;;4.10;;
11386;SDS011;5748;53.102;8.456;2023-01-26T06:28:24;5.47;;;4.20;;
11386;SDS011;5748;53.102;8.456;2023-01-26T06:30:55;5.40;;;4.07;;
11386;SDS011;5748;53.102;8.456;2023-01-26T06:33:36;6.20;;;4.47;;
11386;SDS011;5748;53.102;8.456;2023-01-26T06:36:04;6.67;;;4.50;;
11386;SDS011;5748;53.102;8.456;2023-01-26T06:38:34;5.30;;;3.90;;
11386;SDS011;5748;53.102;8.456;2023-01-26T06:41:01;6.07;;;4.63;;
11386;SDS011;5748;53.102;8.456;2023-01-26T06:43:31;7.60;;;4.93;;
11386;SDS011;5748;53.102;8.456;2023-01-26T06:49:56;6.97;;;4.70;;
11386;SDS011;5748;53.102;8.456;2023-01-26T06:52:26;5.80;;;4.60;;
11386;SDS011;5748;53.102;8.456;2023-01-26T06:54:57;6.90;;;5.30;;
11386;SDS011;5748;53.102;8.456;2023-01-26T06:57:25;5.93;;;4.30;;
11386;SDS011;5748;53.102;8.456;2023-01-26T06:59:52;8.33;;;5.63;;
11386;SDS011;5748;53.102;8.456;2023-01-26T07:02:21;6.57;;;4.50;;
11386;SDS011;5748;53.102;8.456;2023-01-26T07:04:48;7.17;;;5.00;;
11386;SDS011;5748;53.102;8.456;2023-01-26T07:07:18;6.27;;;4.47;;
11386;SDS011;5748;53.102;8.456;2023-01-26T07:09:51;6.87;;;4.80;;
11386;SDS011;5748;53.102;8.456;2023-01-26T07:12:21;7.47;;;5.23;;
11386;SDS011;5748;53.102;8.456;2023-01-26T07:14:49;7.13;;;5.13;;
11386;SDS011;5748;53.102;8.456;2023-01-26T07:17:16;6.53;;;5.07;;
11386;SDS011;5748;53.102;8.456;2023-01-26T07:19:45;6.57;;;4.50;;
11386;SDS011;5748;53.102;8.456;2023-01-26T07:22:12;6.50;;;4.73;;
11386;SDS011;5748;53.102;8.456;2023-01-26T07:24:41;5.87;;;4.40;;
11386;SDS011;5748;53.102;8.456;2023-01-26T07:27:08;6.53;;;4.70;;
11386;SDS011;5748;53.102;8.456;2023-01-26T07:29:35;6.50;;;4.53;;
11386;SDS011;5748;53.102;8.456;2023-01-26T07:32:03;6.13;;;4.10;;
11386;SDS011;5748;53.102;8.456;2023-01-26T07:34:30;7.50;;;4.90;;
11386;SDS011;5748;53.102;8.456;2023-01-26T07:36:57;7.47;;;5.07;;
11386;SDS011;5748;53.102;8.456;2023-01-26T07:39:24;7.03;;;4.73;;
11386;SDS011;5748;53.102;8.456;2023-01-26T07:41:53;6.53;;;4.47;;
11386;SDS011;5748;53.102;8.456;2023-01-26T07:44:20;6.20;;;4.50;;
11386;SDS011;5748;53.102;8.456;2023-01-26T07:46:47;5.97;;;4.37;;
11386;SDS011;5748;53.102;8.456;2023-01-26T07:49:14;5.60;;;3.77;;
11386;SDS011;5748;53.102;8.456;2023-01-26T07:51:41;5.93;;;4.20;;
11386;SDS011;5748;53.102;8.456;2023-01-26T07:54:08;5.57;;;3.87;;
11386;SDS011;5748;53.102;8.456;2023-01-26T07:56:37;5.27;;;3.70;;
11386;SDS011;5748;53.102;8.456;2023-01-26T07:59:06;5.60;;;4.00;;
11386;SDS011;5748;53.102;8.456;2023-01-26T08:01:35;5.50;;;3.77;;
11386;SDS011;5748;53.102;8.456;2023-01-26T08:04:03;5.97;;;4.10;;
11386;SDS011;5748;53.102;8.456;2023-01-26T08:06:38;5.00;;;3.57;;
11386;SDS011;5748;53.102;8.456;2023-01-26T08:09:05;5.30;;;3.73;;
11386;SDS011;5748;53.102;8.456;2023-01-26T08:11:33;5.37;;;3.70;;
11386;SDS011;5748;53.102;8.456;2023-01-26T08:14:00;5.93;;;3.70;;
11386;SDS011;5748;53.102;8.456;2023-01-26T08:16:29;5.37;;;3.90;;
11386;SDS011;5748;53.102;8.456;2023-01-26T08:18:56;5.30;;;3.77;;
11386;SDS011;5748;53.102;8.456;2023-01-26T08:21:23;5.10;;;3.47;;
11386;SDS011;5748;53.102;8.456;2023-01-26T08:23:50;4.77;;;3.50;;
11386;SDS011;5748;53.102;8.456;2023-01-26T08:26:17;5.17;;;3.70;;
11386;SDS011;5748;53.102;8.456;2023-01-26T08:28:45;5.17;;;3.73;;
11386;SDS011;5748;53.102;8.456;2023-01-26T08:31:14;5.27;;;3.80;;
11386;SDS011;5748;53.102;8.456;2023-01-26T08:33:46;5.30;;;3.80;;
11386;SDS011;5748;53.102;8.456;2023-01-26T08:36:15;5.57;;;4.03;;
11386;SDS011;5748;53.102;8.456;2023-01-26T08:38:43;5.23;;;3.67;;
11386;SDS011;5748;53.102;8.456;2023-01-26T08:41:10;5.07;;;3.60;;
11386;SDS011;5748;53.102;8.456;2023-01-26T08:43:52;6.83;;;3.80;;
11386;SDS011;5748;53.102;8.456;2023-01-26T08:46:23;5.57;;;3.43;;
11386;SDS011;5748;53.102;8.456;2023-01-26T08:48:51;4.97;;;3.77;;
11386;SDS011;5748;53.102;8.456;2023-01-26T08:51:19;5.20;;;3.30;;
11386;SDS011;5748;53.102;8.456;2023-01-26T08:53:46;6.63;;;3.33;;
11386;SDS011;5748;53.102;8.456;2023-01-26T08:56:13;4.47;;;3.50;;
11386;SDS011;5748;53.102;8.456;2023-01-26T08:58:40;5.40;;;3.50;;
11386;SDS011;5748;53.102;8.456;2023-01-26T09:01:07;5.37;;;3.57;;
11386;SDS011;5748;53.102;8.456;2023-01-26T09:03:38;4.87;;;3.57;;
11386;SDS011;5748;53.102;8.456;2023-01-26T09:06:07;5.27;;;3.27;;
11386;SDS011;5748;53.102;8.456;2023-01-26T09:08:36;4.50;;;3.40;;
11386;SDS011;5748;53.102;8.456;2023-01-26T09:11:04;4.77;;;3.47;;
11386;SDS011;5748;53.102;8.456;2023-01-26T09:13:31;6.53;;;3.53;;
11386;SDS011;5748;53.102;8.456;2023-01-26T09:16:01;4.50;;;3.10;;
11386;SDS011;5748;53.102;8.456;2023-01-26T09:18:29;6.47;;;3.40;;
11386;SDS011;5748;53.102;8.456;2023-01-26T09:21:00;4.63;;;3.23;;
11386;SDS011;5748;53.102;8.456;2023-01-26T09:23:31;5.10;;;3.50;;
11386;SDS011;5748;53.102;8.456;2023-01-26T09:25:59;4.27;;;3.07;;
11386;SDS011;5748;53.102;8.456;2023-01-26T09:28:38;5.33;;;3.10;;
11386;SDS011;5748;53.102;8.456;2023-01-26T09:31:06;4.43;;;3.40;;
11386;SDS011;5748;53.102;8.456;2023-01-26T09:33:35;4.87;;;3.23;;
11386;SDS011;5748;53.102;8.456;2023-01-26T09:36:03;5.50;;;3.50;;
11386;SDS011;5748;53.102;8.456;2023-01-26T09:38:33;4.90;;;3.80;;
11386;SDS011;5748;53.102;8.456;2023-01-26T09:41:02;5.30;;;3.67;;
11386;SDS011;5748;53.102;8.456;2023-01-26T09:43:37;4.70;;;3.50;;
11386;SDS011;5748;53.102;8.456;2023-01-26T09:46:19;4.97;;;3.63;;
11386;SDS011;5748;53.102;8.456;2023-01-26T09:48:53;6.20;;;3.77;;
11386;SDS011;5748;53.102;8.456;2023-01-26T09:51:31;4.93;;;3.57;;
11386;SDS011;5748;53.102;8.456;2023-01-26T09:54:04;5.40;;;3.60;;
11386;SDS011;5748;53.102;8.456;2023-01-26T09:56:41;5.17;;;3.57;;
11386;SDS011;5748;53.102;8.456;2023-01-26T09:59:11;5.03;;;3.47;;
11386;SDS011;5748;53.102;8.456;2023-01-26T10:01:49;5.03;;;3.07;;
11386;SDS011;5748;53.102;8.456;2023-01-26T10:04:24;4.57;;;3.23;;
11386;SDS011;5748;53.102;8.456;2023-01-26T10:07:01;4.70;;;3.30;;
11386;SDS011;5748;53.102;8.456;2023-01-26T10:09:35;5.10;;;3.50;;
11386;SDS011;5748;53.102;8.456;2023-01-26T10:12:05;5.17;;;3.00;;
11386;SDS011;5748;53.102;8.456;2023-01-26T10:14:44;4.30;;;3.10;;
11386;SDS011;5748;53.102;8.456;2023-01-26T10:17:16;5.57;;;3.37;;
11386;SDS011;5748;53.102;8.456;2023-01-26T10:19:51;4.73;;;3.40;;
11386;SDS011;5748;53.102;8.456;2023-01-26T10:22:28;5.40;;;3.20;;
11386;SDS011;5748;53.102;8.456;2023-01-26T10:25:08;5.00;;;3.27;;
11386;SDS011;5748;53.102;8.456;2023-01-26T10:27:41;4.30;;;3.20;;
11386;SDS011;5748;53.102;8.456;2023-01-26T10:30:11;4.23;;;3.07;;
11386;SDS011;5748;53.102;8.456;2023-01-26T10:32:40;4.60;;;3.23;;
11386;SDS011;5748;53.102;8.456;2023-01-26T10:35:12;4.60;;;3.03;;
11386;SDS011;5748;53.102;8.456;2023-01-26T10:37:43;4.80;;;3.37;;
11386;SDS011;5748;53.102;8.456;2023-01-26T10:40:11;4.67;;;3.37;;
11386;SDS011;5748;53.102;8.456;2023-01-26T10:42:38;3.90;;;2.97;;
11386;SDS011;5748;53.102;8.456;2023-01-26T10:45:22;4.23;;;2.93;;
11386;SDS011;5748;53.102;8.456;2023-01-26T10:48:05;3.50;;;2.60;;
11386;SDS011;5748;53.102;8.456;2023-01-26T10:50:43;3.00;;;2.27;;
11386;SDS011;5748;53.102;8.456;2023-01-26T10:53:13;3.20;;;2.53;;
11386;SDS011;5748;53.102;8.456;2023-01-26T10:55:58;3.70;;;2.63;;
11386;SDS011;5748;53.102;8.456;2023-01-26T10:58:37;3.30;;;2.23;;
11386;SDS011;5748;53.102;8.456;2023-01-26T11:01:13;3.30;;;2.47;;
11386;SDS011;5748;53.102;8.456;2023-01-26T11:03:55;2.70;;;2.27;;
11386;SDS011;5748;53.102;8.456;2023-01-26T11:06:29;3.50;;;2.40;;
11386;SDS011;5748;53.102;8.456;2023-01-26T11:09:07;3.27;;;2.20;;
11386;SDS011;5748;53.102;8.456;2023-01-26T11:11:38;5.83;;;2.60;;
11386;SDS011;5748;53.102;8.456;2023-01-26T11:14:09;3.37;;;2.30;;
11386;SDS011;5748;53.102;8.456;2023-01-26T11:16:38;3.80;;;2.63;;
11386;SDS011;5748;53.102;8.456;2023-01-26T11:19:10;3.47;;;2.70;;
11386;SDS011;5748;53.102;8.456;2023-01-26T11:21:45;3.20;;;2.43;;
11386;SDS011;5748;53.102;8.456;2023-01-26T11:24:18;4.27;;;2.50;;
11386;SDS011;5748;53.102;8.456;2023-01-26T11:29:52;3.83;;;2.53;;
11386;SDS011;5748;53.102;8.456;2023-01-26T11:32:56;3.40;;;2.20;;
11386;SDS011;5748;53.102;8.456;2023-01-26T11:35:31;4.30;;;2.23;;
11386;SDS011;5748;53.102;8.456;2023-01-26T11:38:18;2.50;;;1.93;;
11386;SDS011;5748;53.102;8.456;2023-01-26T11:40:57;4.40;;;2.20;;
11386;SDS011;5748;53.102;8.456;2023-01-26T11:47:06;2.03;;;1.60;;
11386;SDS011;5748;53.102;8.456;2023-01-26T11:49:52;3.30;;;1.63;;
11386;SDS011;5748;53.102;8.456;2023-01-26T11:52:34;2.10;;;1.40;;
11386;SDS011;5748;53.102;8.456;2023-01-26T11:55:21;2.87;;;1.40;;
11386;SDS011;5748;53.102;8.456;2023-01-26T11:57:59;3.10;;;1.60;;
11386;SDS011;5748;53.102;8.456;2023-01-26T12:00:45;2.97;;;1.50;;
11386;SDS011;5748;53.102;8.456;2023-01-26T12:03:18;3.00;;;1.70;;
11386;SDS011;5748;53.102;8.456;2023-01-26T12:05:53;3.40;;;1.70;;
11386;SDS011;5748;53.102;8.456;2023-01-26T12:08:24;2.33;;;1.70;;
11386;SDS011;5748;53.102;8.456;2023-01-26T12:11:02;3.67;;;1.83;;
11386;SDS011;5748;53.102;8.456;2023-01-26T12:16:48;3.57;;;1.70;;
11386;SDS011;5748;53.102;8.456;2023-01-26T12:19:31;2.77;;;1.63;;
11386;SDS011;5748;53.102;8.456;2023-01-26T12:22:10;2.07;;;1.60;;
11386;SDS011;5748;53.102;8.456;2023-01-26T12:24:43;2.93;;;1.63;;
11386;SDS011;5748;53.102;8.456;2023-01-26T12:27:18;2.57;;;1.73;;
11386;SDS011;5748;53.102;8.456;2023-01-26T12:29:53;2.47;;;1.70;;
11386;SDS011;5748;53.102;8.456;2023-01-26T12:32:30;4.60;;;1.67;;
11386;SDS011;5748;53.102;8.456;2023-01-26T12:35:09;3.57;;;1.77;;
11386;SDS011;5748;53.102;8.456;2023-01-26T12:37:40;3.70;;;1.80;;
11386;SDS011;5748;53.102;8.456;2023-01-26T12:40:19;3.10;;;1.83;;
11386;SDS011;5748;53.102;8.456;2023-01-26T12:42:58;3.40;;;1.60;;
11386;SDS011;5748;53.102;8.456;2023-01-26T12:45:38;4.10;;;1.53;;
11386;SDS011;5748;53.102;8.456;2023-01-26T12:48:10;2.37;;;1.30;;
11386;SDS011;5748;53.102;8.456;2023-01-26T12:50:43;2.00;;;1.10;;
11386;SDS011;5748;53.102;8.456;2023-01-26T12:53:15;2.10;;;1.27;;
11386;SDS011;5748;53.102;8.456;2023-01-26T12:55:48;2.30;;;1.20;;
11386;SDS011;5748;53.102;8.456;2023-01-26T12:58:21;2.80;;;1.30;;
11386;SDS011;5748;53.102;8.456;2023-01-26T13:00:52;4.17;;;1.73;;
11386;SDS011;5748;53.102;8.456;2023-01-26T13:03:28;2.67;;;1.20;;
11386;SDS011;5748;53.102;8.456;2023-01-26T13:06:00;2.40;;;1.07;;
11386;SDS011;5748;53.102;8.456;2023-01-26T13:08:47;3.40;;;1.40;;
11386;SDS011;5748;53.102;8.456;2023-01-26T13:11:47;2.97;;;1.30;;
11386;SDS011;5748;53.102;8.456;2023-01-26T13:17:46;2.73;;;1.20;;
11386;SDS011;5748;53.102;8.456;2023-01-26T13:26:24;5.33;;;1.50;;
11386;SDS011;5748;53.102;8.456;2023-01-26T13:29:28;3.17;;;1.20;;
11386;SDS011;5748;53.102;8.456;2023-01-26T13:32:00;3.67;;;1.20;;
11386;SDS011;5748;53.102;8.456;2023-01-26T13:35:19;3.57;;;1.23;;
11386;SDS011;5748;53.102;8.456;2023-01-26T13:37:52;2.97;;;1.20;;
11386;SDS011;5748;53.102;8.456;2023-01-26T13:40:27;3.40;;;1.20;;
11386;SDS011;5748;53.102;8.456;2023-01-26T13:42:57;4.13;;;1.20;;
11386;SDS011;5748;53.102;8.456;2023-01-26T13:45:32;3.60;;;1.20;;
11386;SDS011;5748;53.102;8.456;2023-01-26T13:48:08;2.47;;;1.13;;
11386;SDS011;5748;53.102;8.456;2023-01-26T13:50:40;1.67;;;1.03;;
11386;SDS011;5748;53.102;8.456;2023-01-26T13:56:19;3.13;;;1.27;;
11386;SDS011;5748;53.102;8.456;2023-01-26T14:01:49;2.40;;;1.20;;
11386;SDS011;5748;53.102;8.456;2023-01-26T14:04:20;2.03;;;1.30;;
11386;SDS011;5748;53.102;8.456;2023-01-26T14:06:58;1.83;;;1.30;;
11386;SDS011;5748;53.102;8.456;2023-01-26T14:09:32;3.20;;;1.30;;
11386;SDS011;5748;53.102;8.456;2023-01-26T14:12:12;2.43;;;1.17;;
11386;SDS011;5748;53.102;8.456;2023-01-26T14:14:46;1.33;;;0.90;;
11386;SDS011;5748;53.102;8.456;2023-01-26T14:17:25;2.17;;;0.87;;
11386;SDS011;5748;53.102;8.456;2023-01-26T14:20:15;2.43;;;1.00;;
11386;SDS011;5748;53.102;8.456;2023-01-26T14:23:10;2.60;;;1.00;;
11386;SDS011;5748;53.102;8.456;2023-01-26T14:25:43;1.87;;;0.90;;
11386;SDS011;5748;53.102;8.456;2023-01-26T14:28:14;2.57;;;0.80;;
11386;SDS011;5748;53.102;8.456;2023-01-26T14:30:42;1.30;;;0.73;;
11386;SDS011;5748;53.102;8.456;2023-01-26T14:33:17;2.80;;;0.80;;
11386;SDS011;5748;53.102;8.456;2023-01-26T14:35:54;2.47;;;0.87;;
11386;SDS011;5748;53.102;8.456;2023-01-26T14:38:23;2.60;;;0.90;;
11386;SDS011;5748;53.102;8.456;2023-01-26T14:40:54;2.77;;;0.87;;
11386;SDS011;5748;53.102;8.456;2023-01-26T14:43:23;1.33;;;0.73;;
11386;SDS011;5748;53.102;8.456;2023-01-26T14:45:53;1.67;;;0.90;;
11386;SDS011;5748;53.102;8.456;2023-01-26T14:48:31;1.60;;;0.90;;
11386;SDS011;5748;53.102;8.456;2023-01-26T14:51:02;1.63;;;0.80;;
11386;SDS011;5748;53.102;8.456;2023-01-26T14:53:32;2.30;;;0.73;;
11386;SDS011;5748;53.102;8.456;2023-01-26T14:56:01;1.67;;;0.87;;
11386;SDS011;5748;53.102;8.456;2023-01-26T14:58:30;2.47;;;1.03;;
11386;SDS011;5748;53.102;8.456;2023-01-26T15:00:59;1.20;;;0.93;;
11386;SDS011;5748;53.102;8.456;2023-01-26T15:03:28;1.60;;;0.80;;
11386;SDS011;5748;53.102;8.456;2023-01-26T15:06:04;1.20;;;0.83;;
11386;SDS011;5748;53.102;8.456;2023-01-26T15:08:51;2.33;;;0.80;;
11386;SDS011;5748;53.102;8.456;2023-01-26T15:11:27;2.37;;;0.97;;
11386;SDS011;5748;53.102;8.456;2023-01-26T15:14:26;1.97;;;0.80;;
11386;SDS011;5748;53.102;8.456;2023-01-26T15:17:09;2.13;;;0.90;;
11386;SDS011;5748;53.102;8.456;2023-01-26T15:19:54;2.00;;;0.80;;
11386;SDS011;5748;53.102;8.456;2023-01-26T15:22:27;2.40;;;0.93;;
11386;SDS011;5748;53.102;8.456;2023-01-26T15:25:15;1.93;;;0.87;;
11386;SDS011;5748;53.102;8.456;2023-01-26T15:27:49;1.07;;;0.80;;
11386;SDS011;5748;53.102;8.456;2023-01-26T15:30:18;1.70;;;0.87;;
11386;SDS011;5748;53.102;8.456;2023-01-26T15:32:50;1.40;;;0.90;;
11386;SDS011;5748;53.102;8.456;2023-01-26T15:35:19;1.37;;;0.90;;
11386;SDS011;5748;53.102;8.456;2023-01-26T15:37:57;1.67;;;0.93;;
11386;SDS011;5748;53.102;8.456;2023-01-26T15:40:27;1.70;;;0.90;;
11386;SDS011;5748;53.102;8.456;2023-01-26T15:43:10;2.03;;;1.27;;
11386;SDS011;5748;53.102;8.456;2023-01-26T15:45:38;2.67;;;1.40;;
11386;SDS011;5748;53.102;8.456;2023-01-26T15:48:07;3.00;;;1.30;;
11386;SDS011;5748;53.102;8.456;2023-01-26T15:50:35;1.80;;;1.10;;
11386;SDS011;5748;53.102;8.456;2023-01-26T15:53:04;3.00;;;1.23;;
11386;SDS011;5748;53.102;8.456;2023-01-26T15:55:31;1.40;;;1.07;;
11386;SDS011;5748;53.102;8.456;2023-01-26T15:57:59;2.00;;;1.10;;
11386;SDS011;5748;53.102;8.456;2023-01-26T16:00:27;3.10;;;1.13;;
11386;SDS011;5748;53.102;8.456;2023-01-26T16:02:54;2.63;;;1.17;;
11386;SDS011;5748;53.102;8.456;2023-01-26T16:05:22;2.13;;;0.90;;
11386;SDS011;5748;53.102;8.456;2023-01-26T16:07:50;1.60;;;1.00;;